Time;durP1;ratioP1;P1;durP2;ratioP2;P2;SDS_P1;SDS_P2;PMS_P1;PMS_P2;Temp;Humidity;BMP_temperature;BMP_pressure;BME280_temperature;BME280_humidity;BME280_pressure;Samples;Min_cycle;Max_cycle;Signal;HPM_P1;HPM_P2
2021/08/01 00:00:14;;;;;;;3.92;3.35;;;16.20;88.90;;;;;;4936739;28;20024;-74
2021/08/01 00:02:40;;;;;;;6.65;3.72;;;16.30;89.20;;;;;;4954342;28;20034;-74
2021/08/01 00:05:11;;;;;;;3.30;2.97;;;16.30;89.70;;;;;;4959363;28;20027;-74
2021/08/01 00:07:38;;;;;;;8.35;4.18;;;16.30;89.80;;;;;;4967064;28;20680;-73
2021/08/01 00:10:06;;;;;;;5.70;3.08;;;16.30;89.80;;;;;;4955851;28;20042;-73
2021/08/01 00:12:32;;;;;;;5.93;3.50;;;16.30;89.80;;;;;;4959070;28;20073;-73
2021/08/01 00:14:58;;;;;;;4.60;3.67;;;16.20;89.80;;;;;;4958206;28;21203;-73
2021/08/01 00:17:24;;;;;;;5.00;3.38;;;16.20;89.90;;;;;;4956293;28;20053;-73
2021/08/01 00:19:50;;;;;;;4.35;3.50;;;16.10;90.30;;;;;;4964377;28;20085;-73
2021/08/01 00:22:16;;;;;;;10.63;4.03;;;16.10;90.60;;;;;;4960655;28;20035;-73
2021/08/01 00:24:41;;;;;;;7.35;4.07;;;16.10;90.40;;;;;;4962057;28;20054;-73
2021/08/01 00:27:07;;;;;;;5.38;3.17;;;16.10;90.70;;;;;;4965895;28;22110;-73
2021/08/01 00:29:33;;;;;;;5.68;3.70;;;16.10;90.70;;;;;;4965012;28;20035;-74
2021/08/01 00:32:00;;;;;;;4.93;3.50;;;16.00;90.90;;;;;;4947942;28;20087;-74
2021/08/01 00:34:25;;;;;;;4.47;3.45;;;16.00;90.90;;;;;;4934717;28;20077;-74
2021/08/01 00:36:51;;;;;;;5.05;3.25;;;15.90;91.10;;;;;;4938552;28;20110;-74
2021/08/01 00:39:17;;;;;;;4.53;3.33;;;15.90;90.50;;;;;;4944039;28;20043;-74
2021/08/01 00:41:43;;;;;;;4.35;3.60;;;15.90;90.30;;;;;;4936588;28;20046;-73
2021/08/01 00:44:08;;;;;;;4.00;3.10;;;15.80;90.40;;;;;;4937711;28;20057;-74
2021/08/01 00:46:34;;;;;;;3.53;3.22;;;15.70;90.50;;;;;;4944914;28;20039;-74
2021/08/01 00:49:01;;;;;;;4.80;3.33;;;15.70;90.80;;;;;;4944148;28;20023;-73
2021/08/01 00:51:31;;;;;;;6.78;3.47;;;15.60;90.90;;;;;;4940443;28;20031;-73
2021/08/01 00:53:59;;;;;;;5.72;3.42;;;15.40;91.10;;;;;;4942951;28;20027;-73
2021/08/01 00:56:24;;;;;;;5.22;3.33;;;15.40;91.10;;;;;;4946517;28;20039;-73
2021/08/01 00:58:50;;;;;;;4.93;3.85;;;15.30;91.20;;;;;;4937606;28;20043;-74
2021/08/01 01:01:18;;;;;;;3.75;3.45;;;15.40;91.50;;;;;;4939083;28;20031;-73
2021/08/01 01:04:14;;;;;;;5.95;3.50;;;15.50;91.10;;;;;;4955510;28;20454;-74
2021/08/01 01:06:46;;;;;;;4.90;3.03;;;15.50;90.90;;;;;;4962336;28;20023;-74
2021/08/01 01:09:24;;;;;;;4.85;3.35;;;15.50;90.90;;;;;;4962044;28;20601;-73
2021/08/01 01:11:53;;;;;;;5.97;3.78;;;15.30;91.00;;;;;;4954737;28;20034;-73
2021/08/01 01:14:21;;;;;;;;;;;15.10;91.50;;;;;;4962009;28;20034;-72
2021/08/01 01:16:53;;;;;;;6.88;3.40;;;15.00;91.70;;;;;;4962808;28;19914;-73
2021/08/01 01:19:48;;;;;;;4.93;3.60;;;15.00;92.00;;;;;;4958235;28;20031;-73
2021/08/01 01:22:23;;;;;;;7.13;3.90;;;14.90;92.40;;;;;;4946655;28;20039;-74
2021/08/01 01:24:52;;;;;;;4.65;4.05;;;14.90;92.60;;;;;;4960742;28;20050;-72
2021/08/01 01:27:30;;;;;;;6.15;3.83;;;14.70;93.00;;;;;;4951114;28;20573;-74
2021/08/01 01:30:02;;;;;;;7.35;4.22;;;14.60;93.20;;;;;;4952446;28;20038;-74
2021/08/01 01:32:41;;;;;;;5.55;3.97;;;14.60;93.40;;;;;;4963123;28;20045;-74
2021/08/01 01:35:18;;;;;;;6.15;4.43;;;14.60;93.50;;;;;;4956349;28;20065;-74
2021/08/01 01:37:54;;;;;;;9.52;3.92;;;14.60;93.60;;;;;;4964240;28;20027;-73
2021/08/01 01:40:22;;;;;;;4.68;3.78;;;14.60;93.60;;;;;;4961861;28;20019;-74
2021/08/01 01:42:54;;;;;;;7.85;4.18;;;14.70;93.60;;;;;;4959647;28;20113;-74
2021/08/01 01:45:20;;;;;;;5.43;3.88;;;14.70;93.40;;;;;;4949168;28;20409;-74
2021/08/01 01:47:47;;;;;;;4.05;3.10;;;14.60;93.30;;;;;;4965978;28;20031;-74
2021/08/01 01:50:17;;;;;;;4.53;3.13;;;14.60;93.20;;;;;;4961874;28;20114;-74
2021/08/01 01:52:48;;;;;;;4.93;3.33;;;14.60;92.90;;;;;;4948572;28;20039;-73
2021/08/01 01:55:19;;;;;;;4.18;3.33;;;14.50;93.20;;;;;;4962017;28;20030;-74
2021/08/01 01:57:46;;;;;;;8.00;3.33;;;14.30;93.00;;;;;;4965258;28;20029;-74
2021/08/01 02:00:12;;;;;;;7.60;3.63;;;14.30;93.40;;;;;;4958594;28;20030;-74
2021/08/01 02:02:38;;;;;;;7.40;3.10;;;14.30;93.50;;;;;;4958108;28;20039;-73
2021/08/01 02:05:05;;;;;;;4.25;3.40;;;14.30;93.50;;;;;;4947929;28;20033;-73
2021/08/01 02:07:31;;;;;;;5.80;3.40;;;14.30;93.40;;;;;;4964941;28;20022;-74
2021/08/01 02:10:04;;;;;;;4.40;3.03;;;14.40;93.20;;;;;;4958380;28;20038;-74
2021/08/01 02:12:35;;;;;;;4.70;3.20;;;14.50;92.90;;;;;;4958268;28;20070;-74
2021/08/01 02:15:08;;;;;;;4.60;3.60;;;14.60;92.70;;;;;;4962588;28;20053;-73
2021/08/01 02:18:00;;;;;;;6.05;3.20;;;14.70;92.70;;;;;;4964468;28;20089;-73
2021/08/01 02:20:48;;;;;;;2.83;2.45;;;14.70;92.50;;;;;;4952111;28;20038;-74
2021/08/01 02:23:22;;;;;;;3.42;2.78;;;14.50;92.60;;;;;;4956704;28;20026;-73
2021/08/01 02:25:48;;;;;;;3.40;2.65;;;14.30;93.10;;;;;;4961262;28;20469;-73
2021/08/01 02:28:16;;;;;;;3.88;2.63;;;14.20;93.40;;;;;;4965933;28;20039;-73
2021/08/01 02:30:42;;;;;;;3.53;2.90;;;14.10;93.50;;;;;;4952968;28;20035;-73
2021/08/01 02:33:08;;;;;;;2.55;2.25;;;14.10;93.80;;;;;;4937255;28;20125;-74
2021/08/01 02:35:35;;;;;;;2.40;2.13;;;14.20;93.40;;;;;;4937166;28;21917;-73
2021/08/01 02:38:02;;;;;;;2.22;2.00;;;14.30;93.50;;;;;;4932232;28;20639;-73
2021/08/01 02:40:33;;;;;;;2.70;2.00;;;14.40;93.30;;;;;;4935664;28;20110;-74
2021/08/01 02:43:01;;;;;;;3.63;1.98;;;14.50;93.00;;;;;;4938198;28;20170;-74
2021/08/01 02:45:28;;;;;;;2.80;1.80;;;14.50;92.60;;;;;;4954765;28;20031;-74
2021/08/01 02:47:55;;;;;;;1.92;1.70;;;14.60;92.60;;;;;;4948629;28;20295;-74
2021/08/01 02:50:25;;;;;;;1.60;1.50;;;14.60;92.50;;;;;;4933054;28;20027;-73
2021/08/01 02:53:02;;;;;;;2.45;1.70;;;14.60;92.40;;;;;;4941464;28;20131;-74
2021/08/01 02:55:30;;;;;;;1.80;1.70;;;14.60;92.30;;;;;;4939403;28;20046;-73
2021/08/01 02:57:57;;;;;;;6.00;1.92;;;14.70;92.20;;;;;;4939762;28;20043;-73
2021/08/01 03:00:23;;;;;;;2.95;2.05;;;14.70;92.10;;;;;;4939189;28;20039;-74
2021/08/01 03:02:51;;;;;;;1.40;1.30;;;14.80;92.20;;;;;;4940443;28;20033;-74
2021/08/01 03:05:17;;;;;;;4.28;1.60;;;14.80;92.20;;;;;;4940912;28;20554;-74
2021/08/01 03:07:44;;;;;;;3.22;1.40;;;14.80;92.10;;;;;;4942232;28;20410;-73
2021/08/01 03:10:12;;;;;;;2.28;1.80;;;14.80;92.00;;;;;;4937432;28;20095;-74
2021/08/01 03:12:42;;;;;;;2.78;2.10;;;14.80;92.10;;;;;;4941216;28;20239;-74
2021/08/01 03:15:08;;;;;;;1.85;1.60;;;14.60;93.10;;;;;;4943297;28;20031;-74
2021/08/01 03:17:33;;;;;;;2.80;1.95;;;14.50;92.80;;;;;;4948920;28;20035;-74
2021/08/01 03:19:59;;;;;;;2.85;1.60;;;14.50;93.10;;;;;;4937807;28;20023;-74
2021/08/01 03:22:26;;;;;;;2.10;1.90;;;14.50;93.00;;;;;;4939785;28;20050;-75
2021/08/01 03:24:51;;;;;;;1.98;1.80;;;14.60;92.90;;;;;;4941565;28;20478;-74
2021/08/01 03:27:17;;;;;;;1.83;1.70;;;14.50;92.70;;;;;;4945057;28;20032;-73
2021/08/01 03:29:43;;;;;;;1.75;1.65;;;14.60;92.80;;;;;;4938852;28;20035;-74
2021/08/01 03:32:08;;;;;;;2.55;1.80;;;14.50;92.80;;;;;;4957429;28;20054;-74
2021/08/01 03:34:34;;;;;;;2.15;1.95;;;14.50;93.20;;;;;;4965051;28;20105;-75
2021/08/01 03:36:59;;;;;;;2.85;1.60;;;14.50;93.00;;;;;;4970673;28;20019;-74
2021/08/01 03:39:25;;;;;;;2.38;2.10;;;14.60;93.00;;;;;;4961822;28;20035;-74
2021/08/01 03:41:51;;;;;;;2.10;2.00;;;14.60;92.80;;;;;;4966025;28;20031;-74
2021/08/01 03:44:16;;;;;;;3.38;2.05;;;14.60;92.80;;;;;;4965991;28;20135;-74
2021/08/01 03:46:42;;;;;;;2.53;2.10;;;14.50;92.80;;;;;;4960796;28;20100;-74
2021/08/01 03:49:08;;;;;;;2.85;1.92;;;14.50;93.00;;;;;;4961289;28;20034;-74
2021/08/01 03:51:34;;;;;;;2.97;2.10;;;14.50;93.00;;;;;;4963762;28;20045;-74
2021/08/01 03:53:59;;;;;;;2.35;2.15;;;14.50;93.20;;;;;;4966370;28;20120;-74
2021/08/01 03:56:25;;;;;;;3.20;2.50;;;14.60;92.90;;;;;;4958105;28;20141;-74
2021/08/01 03:58:51;;;;;;;2.30;2.10;;;14.70;92.60;;;;;;4961796;28;20410;-74
2021/08/01 04:01:16;;;;;;;4.18;2.30;;;14.60;92.50;;;;;;4963169;28;20027;-73
2021/08/01 04:03:43;;;;;;;2.65;2.17;;;14.70;92.50;;;;;;4965101;28;20097;-73
2021/08/01 04:06:08;;;;;;;1.85;1.70;;;14.70;92.50;;;;;;4970596;28;20030;-73
2021/08/01 04:08:34;;;;;;;2.97;1.80;;;14.70;92.60;;;;;;4964395;28;20045;-73
2021/08/01 04:11:06;;;;;;;2.00;1.90;;;14.70;92.60;;;;;;4967454;28;20030;-73
2021/08/01 04:13:32;;;;;;;2.17;2.00;;;14.70;92.80;;;;;;4964564;28;20453;-73
2021/08/01 04:15:58;;;;;;;3.22;2.10;;;14.70;92.80;;;;;;4965913;28;20039;-73
2021/08/01 04:18:24;;;;;;;2.30;2.10;;;14.70;93.00;;;;;;4960094;28;20393;-73
2021/08/01 04:20:50;;;;;;;2.33;2.13;;;14.70;93.00;;;;;;4963103;28;20038;-73
2021/08/01 04:23:15;;;;;;;3.03;2.55;;;14.70;92.90;;;;;;4958871;28;20033;-74
2021/08/01 04:25:41;;;;;;;3.08;1.70;;;14.80;92.90;;;;;;4953376;28;20886;-74
2021/08/01 04:28:07;;;;;;;2.55;2.20;;;14.80;92.80;;;;;;4954473;28;20034;-74
2021/08/01 04:30:33;;;;;;;2.75;2.10;;;14.80;92.80;;;;;;4985213;28;20074;-75
2021/08/01 04:32:59;;;;;;;3.50;2.35;;;14.80;92.70;;;;;;4958467;28;20027;-74
2021/08/01 04:35:24;;;;;;;5.32;2.60;;;14.80;92.60;;;;;;4963153;28;20327;-74
2021/08/01 04:37:50;;;;;;;3.35;2.00;;;14.80;92.70;;;;;;4962597;28;20034;-74
2021/08/01 04:40:16;;;;;;;2.33;2.13;;;14.80;92.70;;;;;;4964238;28;20704;-74
2021/08/01 04:42:41;;;;;;;3.13;2.20;;;14.80;92.60;;;;;;4964664;28;20474;-74
2021/08/01 04:45:07;;;;;;;4.57;2.38;;;14.90;92.70;;;;;;4960550;28;20394;-74
2021/08/01 04:47:33;;;;;;;3.67;2.78;;;14.80;92.60;;;;;;4965169;28;20051;-73
2021/08/01 04:49:59;;;;;;;2.92;2.70;;;14.80;92.60;;;;;;4958618;28;20054;-73
2021/08/01 04:52:25;;;;;;;4.20;3.15;;;14.80;92.80;;;;;;4965870;28;20023;-73
2021/08/01 04:54:50;;;;;;;4.78;3.08;;;14.80;92.90;;;;;;4958799;28;20559;-73
2021/08/01 04:57:16;;;;;;;4.50;3.10;;;14.80;92.60;;;;;;4959735;28;20034;-73
2021/08/01 04:59:42;;;;;;;5.00;3.00;;;14.80;92.70;;;;;;4959551;28;20031;-73
2021/08/01 05:02:07;;;;;;;3.55;2.90;;;14.80;92.50;;;;;;4957366;28;20595;-74
2021/08/01 05:04:33;;;;;;;2.83;2.63;;;14.90;92.60;;;;;;4967256;28;20019;-74
2021/08/01 05:06:59;;;;;;;3.85;2.35;;;14.90;92.50;;;;;;4957891;28;20100;-74
2021/08/01 05:09:25;;;;;;;3.15;2.70;;;14.90;92.40;;;;;;4956612;28;20026;-75
2021/08/01 05:11:50;;;;;;;4.10;2.53;;;15.00;92.60;;;;;;4951827;28;20477;-75
2021/08/01 05:14:16;;;;;;;3.03;2.58;;;15.00;92.40;;;;;;4957810;28;20493;-74
2021/08/01 05:16:42;;;;;;;2.88;2.67;;;14.90;92.30;;;;;;4956885;28;20101;-74
2021/08/01 05:19:08;;;;;;;2.65;2.40;;;15.00;92.20;;;;;;4955566;28;20039;-74
2021/08/01 05:21:33;;;;;;;2.38;2.17;;;15.00;92.10;;;;;;4959263;28;20098;-74
2021/08/01 05:23:59;;;;;;;3.38;2.40;;;15.00;92.10;;;;;;4957846;28;20031;-74
2021/08/01 05:26:25;;;;;;;6.72;2.83;;;15.00;92.20;;;;;;4954757;28;20038;-74
2021/08/01 05:28:51;;;;;;;2.58;2.38;;;15.00;92.70;;;;;;4956266;28;20058;-73
2021/08/01 05:31:17;;;;;;;3.00;2.00;;;15.00;92.40;;;;;;4949775;28;20038;-74
2021/08/01 05:33:42;;;;;;;3.33;2.35;;;15.00;92.40;;;;;;4951072;28;20027;-73
2021/08/01 05:36:10;;;;;;;2.20;2.00;;;15.00;92.40;;;;;;4956066;28;20629;-74
2021/08/01 05:38:36;;;;;;;3.08;2.40;;;15.00;92.00;;;;;;4950904;28;20023;-74
2021/08/01 05:41:02;;;;;;;3.03;2.72;;;15.00;91.80;;;;;;4952981;28;20038;-73
2021/08/01 05:43:28;;;;;;;2.90;2.63;;;15.00;92.00;;;;;;4953621;28;20031;-73
2021/08/01 05:45:54;;;;;;;3.75;2.65;;;15.10;91.80;;;;;;4956865;28;20029;-73
2021/08/01 05:48:20;;;;;;;2.90;2.58;;;15.10;91.80;;;;;;4956809;28;20527;-74
2021/08/01 05:50:46;;;;;;;3.13;2.80;;;15.10;91.70;;;;;;4949072;28;20069;-74
2021/08/01 05:53:11;;;;;;;4.43;3.08;;;15.10;91.80;;;;;;4951962;28;20557;-73
2021/08/01 05:55:37;;;;;;;4.45;3.20;;;15.10;91.60;;;;;;4956497;28;20027;-73
2021/08/01 05:58:02;;;;;;;4.18;2.72;;;15.00;91.60;;;;;;4960487;28;20521;-72
2021/08/01 06:00:28;;;;;;;5.97;3.30;;;15.00;91.50;;;;;;4957864;28;20493;-72
2021/08/01 06:02:54;;;;;;;2.92;2.60;;;15.00;91.70;;;;;;4982262;28;20502;-73
2021/08/01 06:05:20;;;;;;;3.03;2.55;;;15.00;91.70;;;;;;4953896;28;20041;-74
2021/08/01 06:07:46;;;;;;;4.72;3.22;;;15.10;91.80;;;;;;4957075;28;20438;-73
2021/08/01 06:10:12;;;;;;;4.80;3.13;;;15.20;91.60;;;;;;4959122;28;20114;-72
2021/08/01 06:12:38;;;;;;;3.92;3.20;;;15.20;91.50;;;;;;4953914;28;20084;-73
2021/08/01 06:15:04;;;;;;;4.32;3.08;;;15.20;91.50;;;;;;4956971;28;20049;-73
2021/08/01 06:17:30;;;;;;;3.67;3.20;;;15.20;91.40;;;;;;4960954;28;20039;-72
2021/08/01 06:19:56;;;;;;;3.35;3.03;;;15.20;91.90;;;;;;4960829;28;20414;-73
2021/08/01 06:22:23;;;;;;;5.25;3.53;;;15.20;91.70;;;;;;4957790;28;20050;-74
2021/08/01 06:24:49;;;;;;;4.43;3.40;;;15.30;91.70;;;;;;4975758;28;20260;-73
2021/08/01 06:27:14;;;;;;;5.22;3.05;;;15.30;92.10;;;;;;4956548;28;20327;-74
2021/08/01 06:29:40;;;;;;;4.10;3.13;;;15.40;91.70;;;;;;4954322;28;20101;-73
2021/08/01 06:32:06;;;;;;;3.92;3.38;;;15.40;91.10;;;;;;4951553;28;20042;-74
2021/08/01 06:34:32;;;;;;;4.57;3.35;;;15.40;91.20;;;;;;4954982;28;20390;-73
2021/08/01 06:36:57;;;;;;;5.15;3.53;;;15.40;91.20;;;;;;4960623;28;20030;-73
2021/08/01 06:39:23;;;;;;;4.55;3.28;;;15.40;91.70;;;;;;4958859;28;20160;-73
2021/08/01 06:41:49;;;;;;;3.88;3.58;;;15.40;91.70;;;;;;4956562;28;20046;-72
2021/08/01 06:44:15;;;;;;;5.82;3.28;;;15.50;91.40;;;;;;4959304;28;21618;-73
2021/08/01 06:46:40;;;;;;;7.30;3.67;;;15.60;91.20;;;;;;4957520;28;20555;-74
2021/08/01 06:49:06;;;;;;;6.60;3.78;;;15.70;91.60;;;;;;4959590;28;20042;-74
2021/08/01 06:51:32;;;;;;;4.07;3.55;;;15.80;91.60;;;;;;4958147;28;20077;-74
2021/08/01 06:53:58;;;;;;;4.43;3.55;;;15.90;90.90;;;;;;4959797;28;20035;-75
2021/08/01 06:56:23;;;;;;;4.03;3.25;;;16.00;90.40;;;;;;4957409;28;20030;-74
2021/08/01 06:58:49;;;;;;;4.20;3.22;;;16.00;90.20;;;;;;4958719;28;20054;-74
2021/08/01 07:01:15;;;;;;;3.58;3.17;;;16.10;90.30;;;;;;4953565;28;21694;-72
2021/08/01 07:03:41;;;;;;;4.03;2.83;;;16.20;90.00;;;;;;4958286;28;20485;-73
2021/08/01 07:06:08;;;;;;;5.45;2.92;;;16.20;89.20;;;;;;4959222;28;20045;-73
2021/08/01 07:08:34;;;;;;;4.15;3.40;;;16.20;88.30;;;;;;4955624;28;20031;-72
2021/08/01 07:11:00;;;;;;;3.00;2.20;;;16.10;90.00;;;;;;4956369;28;20043;-74
2021/08/01 07:13:26;;;;;;;3.00;2.15;;;16.00;86.00;;;;;;4959484;28;20033;-73
2021/08/01 07:15:51;;;;;;;3.47;2.38;;;16.00;85.50;;;;;;4953129;28;20038;-72
2021/08/01 07:18:17;;;;;;;3.53;2.35;;;16.10;85.70;;;;;;4960318;28;20031;-73
2021/08/01 07:20:43;;;;;;;2.55;2.35;;;16.10;87.70;;;;;;4954991;28;20134;-74
2021/08/01 07:23:12;;;;;;;2.67;2.42;;;16.10;86.80;;;;;;4956782;28;20804;-72
2021/08/01 07:25:38;;;;;;;5.38;3.25;;;16.10;87.60;;;;;;4957424;28;20193;-74
2021/08/01 07:28:04;;;;;;;2.85;2.33;;;16.10;86.20;;;;;;4956172;28;20567;-74
2021/08/01 07:30:30;;;;;;;2.67;2.40;;;16.00;86.20;;;;;;4959176;28;20039;-73
2021/08/01 07:32:56;;;;;;;5.43;2.92;;;16.10;88.40;;;;;;4958357;28;20499;-73
2021/08/01 07:35:22;;;;;;;3.30;2.25;;;16.40;89.50;;;;;;4961790;28;20157;-74
2021/08/01 07:37:48;;;;;;;3.17;2.80;;;16.40;89.00;;;;;;4962927;28;20038;-73
2021/08/01 07:40:14;;;;;;;3.75;2.60;;;16.40;87.10;;;;;;4960698;28;20033;-73
2021/08/01 07:42:39;;;;;;;3.55;2.42;;;16.40;87.70;;;;;;4960637;28;22458;-73
2021/08/01 07:45:10;;;;;;;4.78;2.90;;;16.40;85.90;;;;;;4964653;28;20031;-73
2021/08/01 07:47:39;;;;;;;4.53;2.25;;;16.40;85.00;;;;;;4962892;28;20074;-73
2021/08/01 07:50:15;;;;;;;3.83;2.38;;;16.50;85.30;;;;;;4961374;28;20034;-73
2021/08/01 07:52:41;;;;;;;3.50;2.47;;;16.50;85.20;;;;;;4975728;28;20027;-73
2021/08/01 07:55:08;;;;;;;2.40;2.20;;;16.50;84.90;;;;;;4965536;28;20030;-74
2021/08/01 07:58:05;;;;;;;2.83;2.43;;;16.40;83.10;;;;;;4967860;28;20034;-73
2021/08/01 08:00:31;;;;;;;3.92;2.72;;;16.40;83.80;;;;;;4959564;28;20019;-74
2021/08/01 08:02:57;;;;;;;4.47;2.67;;;16.40;85.80;;;;;;4963478;28;20121;-73
2021/08/01 08:05:24;;;;;;;2.85;2.55;;;16.40;84.80;;;;;;4963000;28;20038;-73
2021/08/01 08:07:50;;;;;;;2.83;2.45;;;16.40;85.40;;;;;;4962195;28;20617;-74
2021/08/01 08:10:16;;;;;;;3.75;2.42;;;16.40;86.10;;;;;;4963820;28;20046;-73
2021/08/01 08:12:43;;;;;;;3.20;2.35;;;16.40;85.90;;;;;;4963480;28;20031;-73
2021/08/01 08:15:09;;;;;;;2.22;1.98;;;16.40;84.90;;;;;;4965228;28;20494;-73
2021/08/01 08:17:36;;;;;;;2.40;2.20;;;16.40;84.70;;;;;;4959744;28;20030;-74
2021/08/01 08:20:04;;;;;;;2.58;1.88;;;16.40;83.90;;;;;;4960549;28;20113;-73
2021/08/01 08:22:30;;;;;;;4.57;2.55;;;16.30;82.80;;;;;;4955045;28;20035;-74
2021/08/01 08:24:56;;;;;;;3.92;2.45;;;16.30;84.50;;;;;;4961280;28;20065;-74
2021/08/01 08:27:21;;;;;;;2.80;2.35;;;16.30;84.20;;;;;;4957929;28;20118;-74
2021/08/01 08:29:47;;;;;;;3.05;2.58;;;16.40;85.50;;;;;;4958003;28;20033;-73
2021/08/01 08:32:13;;;;;;;4.72;2.75;;;16.30;85.60;;;;;;4960917;28;20034;-73
2021/08/01 08:34:38;;;;;;;2.47;2.28;;;16.30;85.10;;;;;;4962490;28;20121;-74
2021/08/01 08:37:04;;;;;;;6.43;2.47;;;16.40;86.10;;;;;;4962600;28;20027;-73
2021/08/01 08:39:30;;;;;;;4.72;2.38;;;16.40;85.90;;;;;;4951927;28;20418;-74
2021/08/01 08:41:58;;;;;;;2.58;2.15;;;16.40;86.00;;;;;;4958900;28;20018;-74
2021/08/01 08:44:25;;;;;;;2.60;2.38;;;16.50;86.30;;;;;;4958750;28;20031;-74
2021/08/01 08:46:53;;;;;;;3.08;2.38;;;16.40;84.80;;;;;;4961715;28;20027;-72
2021/08/01 08:49:19;;;;;;;;;;;16.40;86.30;;;;;;4964080;28;20061;-73
2021/08/01 08:51:45;;;;;;;2.65;2.22;;;16.50;86.10;;;;;;4962379;28;19918;-74
2021/08/01 08:54:17;;;;;;;3.20;2.75;;;16.40;85.80;;;;;;4960588;28;20424;-75
2021/08/01 08:56:45;;;;;;;4.72;2.35;;;16.40;86.30;;;;;;4960683;28;20034;-73
2021/08/01 08:59:13;;;;;;;3.60;2.40;;;16.40;86.00;;;;;;4964344;28;20120;-74
2021/08/01 09:01:40;;;;;;;2.53;1.95;;;16.40;84.80;;;;;;4965979;28;20058;-74
2021/08/01 09:04:06;;;;;;;3.42;2.60;;;16.30;85.20;;;;;;4991280;28;20034;-74
2021/08/01 09:06:32;;;;;;;3.20;2.55;;;16.30;86.60;;;;;;4963038;28;20023;-73
2021/08/01 09:08:57;;;;;;;3.88;2.40;;;16.30;87.50;;;;;;4961965;28;20453;-75
2021/08/01 09:11:24;;;;;;;2.60;2.33;;;16.30;88.00;;;;;;4964002;28;20019;-74
2021/08/01 09:13:52;;;;;;;3.47;2.30;;;16.30;87.60;;;;;;4960948;28;20042;-74
2021/08/01 09:16:20;;;;;;;5.25;2.78;;;16.30;87.30;;;;;;4959204;28;20035;-73
2021/08/01 09:18:47;;;;;;;;;;;16.40;88.40;;;;;;4960823;28;20122;-74
2021/08/01 09:21:33;;;;;;;5.38;2.22;;;16.30;88.50;;;;;;4958642;28;19922;-74
2021/08/01 09:24:00;;;;;;;2.67;2.35;;;16.30;85.30;;;;;;4964815;28;20029;-74
2021/08/01 09:26:50;;;;;;;3.72;2.38;;;16.30;88.10;;;;;;4964876;28;20129;-73
2021/08/01 09:29:16;;;;;;;4.03;2.63;;;16.30;90.10;;;;;;4972958;28;20038;-74
2021/08/01 09:31:44;;;;;;;3.13;2.20;;;16.30;89.70;;;;;;4959812;28;20133;-74
2021/08/01 09:34:25;;;;;;;2.78;2.58;;;16.30;89.50;;;;;;4960801;28;20026;-74
2021/08/01 09:37:02;;;;;;;4.03;2.42;;;16.40;89.30;;;;;;4965699;28;20568;-73
2021/08/01 09:39:29;;;;;;;3.35;2.70;;;16.40;88.20;;;;;;4994205;28;20051;-73
2021/08/01 09:42:03;;;;;;;3.58;2.55;;;16.30;88.60;;;;;;4964626;28;20101;-73
2021/08/01 09:44:30;;;;;;;4.82;2.40;;;16.30;87.60;;;;;;4965717;28;20022;-74
2021/08/01 09:46:58;;;;;;;5.10;2.45;;;16.10;86.60;;;;;;4966860;28;20027;-74
2021/08/01 09:49:31;;;;;;;2.65;2.42;;;16.10;87.10;;;;;;4965811;28;20067;-76
2021/08/01 09:52:02;;;;;;;4.45;2.55;;;16.10;89.50;;;;;;4965629;28;20035;-74
2021/08/01 09:54:48;;;;;;;3.83;2.42;;;16.20;88.90;;;;;;4969049;28;20030;-75
2021/08/01 09:57:19;;;;;;;2.42;2.22;;;16.20;90.10;;;;;;4965323;28;20039;-74
2021/08/01 10:00:03;;;;;;;4.45;2.28;;;16.20;87.70;;;;;;4965381;28;20109;-74
2021/08/01 10:02:39;;;;;;;3.00;2.70;;;16.00;87.80;;;;;;4961485;28;20042;-75
2021/08/01 10:05:22;;;;;;;3.85;2.40;;;16.10;88.00;;;;;;4963130;28;20026;-73
2021/08/01 10:07:50;;;;;;;4.20;2.47;;;16.10;87.20;;;;;;4958764;28;20031;-74
2021/08/01 10:10:26;;;;;;;2.80;2.60;;;16.10;87.50;;;;;;4964299;28;20049;-74
2021/08/01 10:12:57;;;;;;;2.92;2.20;;;16.10;87.10;;;;;;4962183;28;20031;-75
2021/08/01 10:15:25;;;;;;;3.03;2.20;;;16.10;88.10;;;;;;4978394;28;20043;-74
2021/08/01 10:17:51;;;;;;;2.40;2.10;;;16.10;87.70;;;;;;4961547;28;20046;-76
2021/08/01 10:20:17;;;;;;;2.33;2.13;;;16.20;88.30;;;;;;4959766;28;20034;-75
2021/08/01 10:22:45;;;;;;;2.45;2.17;;;16.20;88.90;;;;;;4964498;28;20031;-75
2021/08/01 10:25:28;;;;;;;4.20;2.42;;;16.30;87.50;;;;;;4961088;28;20302;-75
2021/08/01 10:27:56;;;;;;;3.65;2.58;;;16.30;86.70;;;;;;4961950;28;20031;-76
2021/08/01 10:30:27;;;;;;;3.38;2.45;;;16.20;87.30;;;;;;4958187;28;20121;-76
2021/08/01 10:33:02;;;;;;;2.55;2.28;;;16.20;86.40;;;;;;4976248;28;20049;-75
2021/08/01 10:35:29;;;;;;;3.60;2.03;;;16.30;85.70;;;;;;4962063;28;20030;-74
2021/08/01 10:38:03;;;;;;;3.20;2.15;;;16.20;84.40;;;;;;4961390;28;20508;-74
2021/08/01 10:40:33;;;;;;;3.13;2.15;;;16.00;83.80;;;;;;4986584;28;20031;-73
2021/08/01 10:43:12;;;;;;;2.05;1.90;;;16.00;86.40;;;;;;4973418;28;20023;-74
2021/08/01 10:45:42;;;;;;;2.17;1.90;;;16.00;86.70;;;;;;4959480;28;20109;-74
2021/08/01 10:48:15;;;;;;;2.42;1.88;;;16.00;86.80;;;;;;4958341;28;20110;-74
2021/08/01 10:50:42;;;;;;;3.28;2.33;;;16.00;85.90;;;;;;4966245;28;20149;-73
2021/08/01 10:53:21;;;;;;;2.33;2.13;;;16.00;86.40;;;;;;4962191;28;20398;-72
2021/08/01 11:14:53;;;;;;;3.08;2.30;;;16.20;85.40;;;;;;4964332;28;20636;-71
2021/08/01 11:17:40;;;;;;;2.97;2.40;;;16.20;88.00;;;;;;4965325;28;20130;-74
2021/08/01 11:20:28;;;;;;;3.67;2.60;;;16.20;86.10;;;;;;4954322;28;20047;-75
2021/08/01 11:22:58;;;;;;;4.25;2.40;;;16.30;86.60;;;;;;4964110;28;20053;-74
2021/08/01 11:25:34;;;;;;;2.67;2.35;;;16.30;86.10;;;;;;4967598;28;20050;-73
2021/08/01 11:28:18;;;;;;;3.30;2.25;;;16.30;87.40;;;;;;4964151;28;20042;-74
2021/08/01 11:30:54;;;;;;;2.75;1.90;;;16.40;86.70;;;;;;4962164;28;20099;-74
2021/08/01 11:33:46;;;;;;;3.63;2.10;;;16.40;85.90;;;;;;4967220;28;20654;-74
2021/08/01 11:36:18;;;;;;;4.22;2.25;;;16.30;85.30;;;;;;4959742;28;20645;-73
2021/08/01 11:38:55;;;;;;;3.35;2.25;;;16.40;87.30;;;;;;4961587;28;20058;-74
2021/08/01 11:41:27;;;;;;;1.97;1.80;;;16.40;88.30;;;;;;4961386;28;20034;-73
2021/08/01 11:44:03;;;;;;;3.13;2.22;;;16.40;87.30;;;;;;4954596;28;20635;-75
2021/08/01 11:46:57;;;;;;;3.63;2.05;;;16.50;87.80;;;;;;4961002;28;20034;-74
2021/08/01 11:49:24;;;;;;;2.53;2.20;;;16.40;85.20;;;;;;4960265;28;20054;-75
2021/08/01 11:51:54;;;;;;;3.75;2.13;;;16.40;86.60;;;;;;4963097;28;20452;-74
2021/08/01 11:54:29;;;;;;;2.55;2.05;;;16.40;84.50;;;;;;4976887;28;20034;-75
2021/08/01 11:56:58;;;;;;;2.05;1.83;;;16.40;86.50;;;;;;4956012;28;20465;-74
2021/08/01 11:59:25;;;;;;;2.70;1.70;;;16.40;84.40;;;;;;4968454;28;20027;-72
2021/08/01 12:01:53;;;;;;;2.00;1.80;;;16.50;84.10;;;;;;4969467;28;20031;-74
2021/08/01 12:04:19;;;;;;;2.03;1.53;;;16.50;85.80;;;;;;4949867;28;20031;-73
2021/08/01 12:06:54;;;;;;;1.92;1.73;;;16.50;83.10;;;;;;4952580;28;20512;-74
2021/08/01 12:09:29;;;;;;;2.28;1.63;;;16.50;78.40;;;;;;4966514;28;20060;-76
2021/08/01 12:11:57;;;;;;;2.33;1.77;;;16.50;83.00;;;;;;4956278;28;20030;-75
2021/08/01 12:14:28;;;;;;;2.40;1.58;;;16.60;82.70;;;;;;4965770;28;20034;-75
2021/08/01 12:17:13;;;;;;;3.03;1.60;;;16.60;80.70;;;;;;4965237;28;20038;-75
2021/08/01 12:19:46;;;;;;;2.47;1.77;;;16.70;82.80;;;;;;4971697;28;20045;-75
2021/08/01 12:22:14;;;;;;;2.90;1.95;;;16.70;82.70;;;;;;4952689;28;20027;-74
2021/08/01 12:24:41;;;;;;;4.13;1.83;;;16.80;84.20;;;;;;4963296;28;20042;-75
2021/08/01 12:27:11;;;;;;;2.78;2.08;;;16.80;84.00;;;;;;4956469;28;20109;-74
2021/08/01 12:29:38;;;;;;;2.13;1.80;;;16.90;84.80;;;;;;4954535;28;20117;-75
2021/08/01 12:32:16;;;;;;;2.03;1.85;;;16.90;83.50;;;;;;4957818;28;20213;-73
2021/08/01 12:34:42;;;;;;;2.42;2.03;;;17.00;82.60;;;;;;4965009;28;20038;-74
2021/08/01 12:37:08;;;;;;;2.80;1.90;;;17.00;86.10;;;;;;4956660;28;20035;-74
2021/08/01 12:39:49;;;;;;;2.53;2.10;;;17.00;82.10;;;;;;4960211;28;20062;-74
2021/08/01 12:42:16;;;;;;;1.75;1.63;;;17.00;82.20;;;;;;4952787;28;20078;-73
2021/08/01 12:44:53;;;;;;;2.95;2.05;;;17.10;83.90;;;;;;4954473;28;20054;-72
2021/08/01 12:47:19;;;;;;;1.90;1.70;;;17.20;81.80;;;;;;4958313;28;20066;-74
2021/08/01 12:49:46;;;;;;;1.63;1.52;;;17.20;82.30;;;;;;4962945;28;20039;-73
2021/08/01 12:52:19;;;;;;;1.65;1.50;;;17.20;78.10;;;;;;4965749;28;20030;-73
2021/08/01 12:54:46;;;;;;;2.40;1.85;;;17.20;80.60;;;;;;4981608;28;20511;-75
2021/08/01 12:57:12;;;;;;;2.70;1.98;;;17.20;78.80;;;;;;4984193;28;20039;-74
2021/08/01 12:59:38;;;;;;;4.28;2.03;;;17.20;81.70;;;;;;4964621;28;20375;-75
2021/08/01 13:02:05;;;;;;;2.10;1.85;;;17.20;79.90;;;;;;4959897;28;20140;-73
2021/08/01 13:04:45;;;;;;;2.08;1.42;;;17.30;81.50;;;;;;4964499;28;20027;-73
2021/08/01 13:07:12;;;;;;;2.08;1.88;;;17.30;80.00;;;;;;4965661;28;20586;-73
2021/08/01 13:09:38;;;;;;;2.08;1.63;;;17.30;78.40;;;;;;4969610;28;20027;-74
2021/08/01 13:12:12;;;;;;;2.13;1.70;;;17.30;78.50;;;;;;4964588;28;20023;-74
2021/08/01 13:14:40;;;;;;;2.00;1.80;;;17.30;77.40;;;;;;4967108;28;20059;-73